createdAt,value
2022-10-22T00:02:11.677Z,2.80
2022-10-22T00:04:38.344Z,2.58
2022-10-22T00:07:06.533Z,3.47
2022-10-22T00:09:32.991Z,2.42
2022-10-22T00:11:59.558Z,3.45
2022-10-22T00:14:26.126Z,2.90
2022-10-22T00:16:52.743Z,2.70
2022-10-22T00:19:19.368Z,3.85
2022-10-22T00:21:46.122Z,3.13
2022-10-22T00:24:12.989Z,2.95
2022-10-22T00:26:40.482Z,5.07
2022-10-22T00:29:07.242Z,4.97
2022-10-22T00:31:33.805Z,3.85
2022-10-22T00:34:01.086Z,3.35
2022-10-22T00:36:27.697Z,3.15
2022-10-22T00:38:54.231Z,2.93
2022-10-22T00:41:20.886Z,3.70
2022-10-22T00:44:01.808Z,3.55
2022-10-22T00:46:29.287Z,4.03
2022-10-22T00:48:58.146Z,3.30
2022-10-22T00:51:28.774Z,3.33
2022-10-22T00:54:00.226Z,2.80
2022-10-22T00:56:27.077Z,6.25
2022-10-22T00:58:58.317Z,4.43
2022-10-22T01:01:27.734Z,3.83
2022-10-22T01:03:54.797Z,2.80
2022-10-22T01:06:33.359Z,2.45
2022-10-22T01:09:12.071Z,3.45
2022-10-22T01:12:07.182Z,3.05
2022-10-22T01:15:08.956Z,2.67
2022-10-22T01:18:02.316Z,2.93
2022-10-22T01:20:53.653Z,3.92
2022-10-22T01:23:43.639Z,2.50
2022-10-22T01:26:26.263Z,2.95
2022-10-22T01:29:07.193Z,2.75
2022-10-22T01:31:40.315Z,3.03
2022-10-22T01:34:08.799Z,3.33
2022-10-22T01:36:37.560Z,1.90
2022-10-22T01:39:05.793Z,3.03
2022-10-22T01:41:32.252Z,2.75
2022-10-22T01:43:58.884Z,2.70
2022-10-22T01:46:28.015Z,3.55
2022-10-22T01:49:26.707Z,3.83
2022-10-22T01:52:11.652Z,3.97
2022-10-22T01:55:33.145Z,3.80
2022-10-22T01:58:25.535Z,2.60
2022-10-22T02:01:09.713Z,4.63
2022-10-22T02:03:47.110Z,4.43
2022-10-22T02:06:19.391Z,5.13
2022-10-22T02:08:47.636Z,5.72
2022-10-22T02:27:53.216Z,3.85
2022-10-22T02:30:21.469Z,3.60
2022-10-22T02:33:14.292Z,3.92
2022-10-22T02:35:42.837Z,5.00
2022-10-22T02:38:10.895Z,8.43
2022-10-22T02:40:38.671Z,17.90
2022-10-22T02:43:06.283Z,5.77
2022-10-22T02:45:33.901Z,7.30
2022-10-22T02:48:00.716Z,4.65
2022-10-22T02:50:27.471Z,3.78
2022-10-22T02:52:54.026Z,4.10
2022-10-22T02:55:20.652Z,4.23
2022-10-22T02:57:47.272Z,3.10
2022-10-22T03:00:14.638Z,3.22
2022-10-22T03:02:41.103Z,3.17
2022-10-22T03:05:08.271Z,3.95
2022-10-22T03:07:34.941Z,4.63
2022-10-22T03:10:01.619Z,7.72
2022-10-22T03:12:28.155Z,3.58
2022-10-22T03:14:54.576Z,3.53
2022-10-22T03:17:21.145Z,2.63
2022-10-22T03:19:47.771Z,4.70
2022-10-22T03:22:21.544Z,3.53
2022-10-22T03:24:51.130Z,3.25
2022-10-22T03:27:20.091Z,3.10
2022-10-22T03:29:47.264Z,3.08
2022-10-22T03:32:14.117Z,2.30
2022-10-22T03:34:40.720Z,2.72
2022-10-22T03:37:07.435Z,2.90
2022-10-22T03:39:36.148Z,2.63
2022-10-22T03:42:04.946Z,3.55
2022-10-22T03:44:31.890Z,3.57
2022-10-22T03:47:01.746Z,6.95
2022-10-22T03:49:29.408Z,4.68
2022-10-22T03:51:55.877Z,5.93
2022-10-22T03:54:22.781Z,5.30
2022-10-22T03:56:49.466Z,4.30
2022-10-22T03:59:16.209Z,3.80
2022-10-22T04:01:42.723Z,3.40
2022-10-22T04:04:09.226Z,3.72
2022-10-22T04:06:35.748Z,4.63
2022-10-22T04:09:02.648Z,3.17
2022-10-22T04:11:29.326Z,3.10
2022-10-22T04:13:56.076Z,3.42
2022-10-22T04:16:25.111Z,2.88
2022-10-22T04:18:54.171Z,3.20
2022-10-22T04:26:31.130Z,4.03
2022-10-22T04:28:57.713Z,3.08
2022-10-22T04:31:26.097Z,3.72
2022-10-22T04:33:58.082Z,3.57
2022-10-22T04:36:25.939Z,4.57
2022-10-22T04:38:57.219Z,3.67
2022-10-22T04:41:28.367Z,6.25
2022-10-22T04:43:59.221Z,3.63
2022-10-22T04:46:28.386Z,7.47
2022-10-22T04:48:55.202Z,3.83
2022-10-22T04:51:24.303Z,5.35
2022-10-22T04:53:50.948Z,3.83
2022-10-22T04:56:25.129Z,3.15
2022-10-22T04:58:55.421Z,3.37
2022-10-22T05:01:26.407Z,7.50
2022-10-22T05:03:54.800Z,2.92
2022-10-22T05:06:22.866Z,3.45
2022-10-22T05:08:54.220Z,3.40
2022-10-22T05:11:23.703Z,3.63
2022-10-22T05:13:51.272Z,3.75
2022-10-22T05:16:17.906Z,4.28
2022-10-22T05:18:45.371Z,3.70
2022-10-22T05:21:14.595Z,3.58
2022-10-22T05:23:41.742Z,3.00
2022-10-22T05:26:11.167Z,3.25
2022-10-22T05:28:39.861Z,5.20
2022-10-22T05:31:08.107Z,4.28
2022-10-22T05:33:35.233Z,3.67
2022-10-22T05:36:03.440Z,3.67
2022-10-22T05:38:30.234Z,2.83
2022-10-22T05:41:11.481Z,4.10
2022-10-22T05:43:38.607Z,3.63
2022-10-22T05:46:08.475Z,2.45
2022-10-22T05:48:35.410Z,3.60
2022-10-22T05:51:05.511Z,3.03
2022-10-22T05:53:34.059Z,2.75
2022-10-22T05:56:06.199Z,3.20
2022-10-22T05:58:33.530Z,4.80
2022-10-22T06:01:12.890Z,3.07
2022-10-22T06:03:41.121Z,3.25
2022-10-22T06:06:18.792Z,2.88
2022-10-22T06:08:47.649Z,3.15
2022-10-22T06:11:15.193Z,3.22
2022-10-22T06:13:41.825Z,4.33
2022-10-22T06:16:08.726Z,5.88
2022-10-22T06:18:35.303Z,8.60
2022-10-22T06:21:11.572Z,6.63
2022-10-22T06:23:39.089Z,6.68
2022-10-22T06:26:06.153Z,3.03
2022-10-22T06:28:33.353Z,2.67
2022-10-22T06:31:01.738Z,3.13
2022-10-22T06:33:29.272Z,3.67
2022-10-22T06:35:55.946Z,2.60
2022-10-22T06:38:22.533Z,2.60
2022-10-22T06:40:49.206Z,2.83
2022-10-22T06:43:15.711Z,3.10
2022-10-22T06:45:42.407Z,3.47
2022-10-22T06:48:08.941Z,4.05
2022-10-22T06:50:35.838Z,3.83
2022-10-22T06:53:02.392Z,3.42
2022-10-22T06:55:29.182Z,2.38
2022-10-22T06:57:56.317Z,2.47
2022-10-22T07:00:23.165Z,3.45
2022-10-22T07:02:57.628Z,2.40
2022-10-22T07:05:26.080Z,2.10
2022-10-22T07:07:53.564Z,1.98
2022-10-22T07:10:20.491Z,2.42
2022-10-22T07:12:47.207Z,2.20
2022-10-22T07:15:14.216Z,2.10
2022-10-22T07:20:12.848Z,2.17
2022-10-22T07:22:42.295Z,2.58
2022-10-22T07:25:09.534Z,2.10
2022-10-22T07:27:36.120Z,1.63
2022-10-22T07:30:03.032Z,2.08
2022-10-22T07:32:31.989Z,2.03
2022-10-22T07:34:58.721Z,2.00
2022-10-22T07:37:26.794Z,1.77
2022-10-22T07:39:53.824Z,1.90
2022-10-22T07:42:20.500Z,1.40
2022-10-22T07:44:47.066Z,1.48
2022-10-22T07:47:13.665Z,1.52
2022-10-22T07:49:40.368Z,2.05
2022-10-22T07:52:08.233Z,2.43
2022-10-22T07:54:37.848Z,1.65
2022-10-22T07:57:06.789Z,1.45
2022-10-22T07:59:34.503Z,1.30
2022-10-22T08:02:01.053Z,1.48
2022-10-22T08:04:27.599Z,1.50
2022-10-22T08:06:54.339Z,1.17
2022-10-22T08:09:24.227Z,2.17
2022-10-22T08:11:51.027Z,1.10
2022-10-22T08:14:17.908Z,1.42
2022-10-22T08:16:45.069Z,2.13
2022-10-22T08:19:13.448Z,2.47
2022-10-22T08:21:40.537Z,2.22
2022-10-22T08:24:10.326Z,2.47
2022-10-22T08:26:37.140Z,1.70
2022-10-22T08:29:03.884Z,2.20
2022-10-22T08:31:30.812Z,1.58
2022-10-22T08:34:02.572Z,1.70
2022-10-22T08:36:29.161Z,1.45
2022-10-22T08:38:55.895Z,2.15
2022-10-22T08:41:24.129Z,0.97
2022-10-22T08:44:21.523Z,1.45
2022-10-22T08:47:21.391Z,1.48
2022-10-22T08:49:49.309Z,1.52
2022-10-22T08:52:19.822Z,1.30
2022-10-22T08:55:02.278Z,1.17
2022-10-22T08:57:52.203Z,1.23
2022-10-22T09:00:32.124Z,1.30
2022-10-22T09:03:42.684Z,1.77
2022-10-22T09:06:14.970Z,1.52
2022-10-22T09:08:47.472Z,1.13
2022-10-22T09:11:48.775Z,1.00
2022-10-22T09:14:20.613Z,2.03
2022-10-22T09:17:12.110Z,0.85
2022-10-22T09:20:17.103Z,1.48
2022-10-22T09:23:01.591Z,3.90
2022-10-22T09:25:30.908Z,1.35
2022-10-22T09:28:00.820Z,1.58
2022-10-22T09:30:31.157Z,1.45
2022-10-22T09:33:03.814Z,1.50
2022-10-22T09:35:34.049Z,0.83
2022-10-22T09:38:07.379Z,1.40
2022-10-22T09:40:43.999Z,1.42
2022-10-22T09:43:14.063Z,1.77
2022-10-22T09:45:41.396Z,1.50
2022-10-22T09:48:34.198Z,1.43
2022-10-22T09:51:22.881Z,1.10
2022-10-22T09:54:06.136Z,1.42
2022-10-22T09:56:33.809Z,1.08
2022-10-22T09:59:00.512Z,1.45
2022-10-22T10:01:34.596Z,1.20
2022-10-22T10:04:09.688Z,1.60
2022-10-22T10:06:40.500Z,1.42
2022-10-22T10:14:32.330Z,1.00
2022-10-22T10:17:29.207Z,1.27
2022-10-22T10:21:03.902Z,1.02
2022-10-22T10:23:44.525Z,0.90
2022-10-22T10:26:32.208Z,1.38
2022-10-22T10:29:33.363Z,1.03
2022-10-22T10:32:54.025Z,1.88
2022-10-22T10:35:28.336Z,1.25
2022-10-22T10:40:33.310Z,1.08
2022-10-22T10:43:22.402Z,1.20
2022-10-22T10:46:21.173Z,1.30
2022-10-22T10:49:06.153Z,1.42
2022-10-22T10:52:13.168Z,1.20
2022-10-22T10:54:49.509Z,1.35
2022-10-22T10:57:54.502Z,0.67
2022-10-22T11:00:22.680Z,1.10
2022-10-22T11:03:01.937Z,1.33
2022-10-22T11:05:59.352Z,1.20
2022-10-22T11:08:41.944Z,1.67
2022-10-22T11:11:23.981Z,0.90
2022-10-22T11:13:59.337Z,0.90
2022-10-22T11:16:37.221Z,1.25
2022-10-22T11:19:22.810Z,0.80
2022-10-22T11:22:00.886Z,0.90
2022-10-22T11:24:41.265Z,0.90
2022-10-22T11:27:37.412Z,1.88
2022-10-22T11:30:11.797Z,0.85
2022-10-22T11:32:40.745Z,0.80
2022-10-22T11:35:14.832Z,1.00
2022-10-22T11:37:47.220Z,1.40
2022-10-22T11:40:14.052Z,1.17
2022-10-22T11:42:46.754Z,1.13
2022-10-22T11:45:39.656Z,1.00
2022-10-22T11:48:34.551Z,1.48
2022-10-22T11:51:03.138Z,1.50
2022-10-22T11:53:33.872Z,2.03
2022-10-22T11:56:05.111Z,1.13
2022-10-22T11:58:50.773Z,0.85
2022-10-22T12:01:27.932Z,1.20
2022-10-22T12:04:16.100Z,1.83
2022-10-22T12:07:03.313Z,1.02
2022-10-22T12:09:32.916Z,1.50
2022-10-22T12:12:12.638Z,0.88
2022-10-22T12:14:53.644Z,1.30
2022-10-22T12:17:25.632Z,1.40
2022-10-22T12:20:07.542Z,1.58
2022-10-22T12:22:37.905Z,1.25
2022-10-22T12:25:18.665Z,1.40
2022-10-22T12:27:51.996Z,1.20
2022-10-22T12:30:22.304Z,1.27
2022-10-22T12:32:52.054Z,1.20
2022-10-22T12:35:21.190Z,2.13
2022-10-22T12:38:08.445Z,1.42
2022-10-22T12:40:35.741Z,1.30
2022-10-22T12:43:13.771Z,1.43
2022-10-22T12:45:43.020Z,1.50
2022-10-22T12:48:23.923Z,1.75
2022-10-22T12:50:56.972Z,1.38
2022-10-22T12:53:31.706Z,1.05
2022-10-22T12:56:06.847Z,0.90
2022-10-22T12:58:39.647Z,1.35
2022-10-22T13:01:07.138Z,1.42
2022-10-22T13:03:43.063Z,1.05
2022-10-22T13:06:34.244Z,1.38
2022-10-22T13:09:25.153Z,1.20
2022-10-22T13:11:59.277Z,1.30
2022-10-22T13:14:29.898Z,1.98
2022-10-22T13:17:34.609Z,1.50
2022-10-22T13:20:05.549Z,1.48
2022-10-22T13:22:55.111Z,1.03
2022-10-22T13:25:35.711Z,1.30
2022-10-22T13:28:28.534Z,1.88
2022-10-22T13:30:58.508Z,1.67
2022-10-22T13:33:30.784Z,1.17
2022-10-22T13:35:57.461Z,1.80
2022-10-22T13:38:26.659Z,1.60
2022-10-22T13:40:54.664Z,1.85
2022-10-22T13:43:22.323Z,1.50
2022-10-22T13:45:54.201Z,1.92
2022-10-22T13:48:22.556Z,1.13
2022-10-22T13:50:54.239Z,1.25
2022-10-22T13:53:29.133Z,1.30
2022-10-22T13:55:56.067Z,2.05
2022-10-22T13:58:25.045Z,1.48
2022-10-22T14:00:58.398Z,1.60
2022-10-22T14:03:34.346Z,1.95
2022-10-22T14:06:01.474Z,1.55
2022-10-22T14:08:28.715Z,2.42
2022-10-22T14:28:26.872Z,1.90
2022-10-22T14:30:54.229Z,3.45
2022-10-22T14:33:28.930Z,1.97
2022-10-22T14:36:00.063Z,1.80
2022-10-22T14:38:27.353Z,2.90
2022-10-22T14:40:54.914Z,2.42
2022-10-22T14:43:24.634Z,1.90
2022-10-22T14:45:51.939Z,1.80
2022-10-22T14:50:47.227Z,1.75
2022-10-22T14:53:16.905Z,1.75
2022-10-22T14:55:44.969Z,1.73
2022-10-22T14:58:12.447Z,1.93
2022-10-22T15:00:41.441Z,2.25
2022-10-22T15:03:17.270Z,2.45
2022-10-22T15:05:45.784Z,3.40
2022-10-22T15:08:17.047Z,2.05
2022-10-22T15:10:43.662Z,1.90
2022-10-22T15:13:10.523Z,2.45
2022-10-22T15:15:40.379Z,2.05
2022-10-22T15:18:07.791Z,1.73
2022-10-22T15:20:34.660Z,1.42
2022-10-22T15:23:01.340Z,1.50
2022-10-22T15:25:29.283Z,2.13
2022-10-22T15:28:00.844Z,1.77
2022-10-22T15:30:31.377Z,2.22
2022-10-22T15:33:01.940Z,2.22
2022-10-22T15:35:28.823Z,2.50
2022-10-22T15:37:55.812Z,1.83
2022-10-22T15:40:22.779Z,2.65
2022-10-22T15:42:53.589Z,2.05
2022-10-22T15:45:26.337Z,2.60
2022-10-22T15:47:55.461Z,1.73
2022-10-22T15:50:22.429Z,1.95
2022-10-22T15:52:49.178Z,1.85
2022-10-22T15:55:18.882Z,2.47
2022-10-22T15:57:46.084Z,3.95
2022-10-22T16:00:13.446Z,1.87
2022-10-22T16:02:40.215Z,2.83
2022-10-22T16:05:07.455Z,2.25
2022-10-22T16:07:34.171Z,2.47
2022-10-22T16:10:01.737Z,2.83
2022-10-22T16:12:31.209Z,2.77
2022-10-22T16:14:58.021Z,2.75
2022-10-22T16:17:24.754Z,3.10
2022-10-22T16:19:53.643Z,2.47
2022-10-22T16:22:20.247Z,2.80
2022-10-22T16:24:46.833Z,2.47
2022-10-22T16:27:13.573Z,2.30
2022-10-22T16:29:40.737Z,2.17
2022-10-22T16:32:08.176Z,2.20
2022-10-22T16:34:34.707Z,2.50
2022-10-22T16:37:01.661Z,1.97
2022-10-22T16:39:28.459Z,2.35
2022-10-22T16:41:58.073Z,2.47
2022-10-22T16:44:24.807Z,2.42
2022-10-22T16:46:54.032Z,3.08
2022-10-22T16:49:20.646Z,3.63
2022-10-22T16:51:47.209Z,3.15
2022-10-22T16:54:15.794Z,3.60
2022-10-22T16:56:42.438Z,3.20
2022-10-22T16:59:08.977Z,5.32
2022-10-22T17:01:39.667Z,5.73
2022-10-22T17:04:07.654Z,4.72
2022-10-22T17:06:34.529Z,2.65
2022-10-22T17:09:01.079Z,3.10
2022-10-22T17:11:30.238Z,2.58
2022-10-22T17:13:56.869Z,2.37
2022-10-22T17:16:24.830Z,2.15
2022-10-22T17:18:54.073Z,3.30
2022-10-22T17:21:23.151Z,3.50
2022-10-22T17:23:56.542Z,4.97
2022-10-22T17:26:24.139Z,4.43
2022-10-22T17:28:51.063Z,5.43
2022-10-22T17:31:24.641Z,5.88
2022-10-22T17:33:54.083Z,6.70
2022-10-22T17:36:22.089Z,7.03
2022-10-22T17:38:52.075Z,7.47
2022-10-22T17:41:21.778Z,6.38
2022-10-22T17:43:49.034Z,5.03
2022-10-22T17:46:24.715Z,4.07
2022-10-22T17:48:55.375Z,3.40
2022-10-22T17:51:23.336Z,3.87
2022-10-22T17:53:50.808Z,3.75
2022-10-22T17:56:24.629Z,4.05
2022-10-22T17:58:51.805Z,4.28
2022-10-22T18:01:27.504Z,3.88
2022-10-22T18:03:55.992Z,4.03
2022-10-22T18:33:11.847Z,3.72
2022-10-22T18:35:38.666Z,3.08
2022-10-22T18:38:06.655Z,4.30
2022-10-22T18:40:33.358Z,5.13
2022-10-22T18:43:02.958Z,3.90
2022-10-22T18:45:31.056Z,4.03
2022-10-22T18:47:58.943Z,4.75
2022-10-22T18:50:25.563Z,4.10
2022-10-22T18:52:52.384Z,3.97
2022-10-22T18:55:18.957Z,4.68
2022-10-22T18:57:45.612Z,3.85
2022-10-22T19:00:13.056Z,4.15
2022-10-22T19:02:40.021Z,4.57
2022-10-22T19:05:10.422Z,4.47
2022-10-22T19:07:37.028Z,4.32
2022-10-22T19:10:05.105Z,4.40
2022-10-22T19:12:31.819Z,3.80
2022-10-22T19:14:58.577Z,4.07
2022-10-22T19:17:25.956Z,4.50
2022-10-22T19:19:56.359Z,4.63
2022-10-22T19:22:23.069Z,4.30
2022-10-22T19:24:50.063Z,5.45
2022-10-22T19:27:17.849Z,5.23
2022-10-22T19:29:46.012Z,4.50
2022-10-22T19:32:16.073Z,4.55
2022-10-22T19:34:43.197Z,6.07
2022-10-22T19:37:09.736Z,6.10
2022-10-22T19:39:37.710Z,7.83
2022-10-22T19:42:04.624Z,6.13
2022-10-22T19:44:31.329Z,6.20
2022-10-22T19:46:57.957Z,6.72
2022-10-22T19:49:27.034Z,5.10
2022-10-22T19:51:54.672Z,4.27
2022-10-22T19:54:21.326Z,4.55
2022-10-22T19:56:49.388Z,4.32
2022-10-22T19:59:18.892Z,3.67
2022-10-22T20:01:45.587Z,4.22
2022-10-22T20:04:16.057Z,3.80
2022-10-22T20:06:43.094Z,4.13
2022-10-22T20:09:12.523Z,5.15
2022-10-22T20:11:39.474Z,4.80
2022-10-22T20:14:07.506Z,5.05
2022-10-22T20:16:36.065Z,6.13
2022-10-22T20:19:05.459Z,5.78
2022-10-22T20:21:33.334Z,6.22
2022-10-22T20:24:00.584Z,6.32
2022-10-22T20:26:28.492Z,6.43
2022-10-22T20:28:56.682Z,6.33
2022-10-22T20:31:25.212Z,7.38
2022-10-22T20:33:51.948Z,6.38
2022-10-22T20:36:21.279Z,6.65
2022-10-22T20:38:48.511Z,7.38
2022-10-22T20:41:19.757Z,6.80
2022-10-22T20:43:47.581Z,7.00
2022-10-22T20:46:23.168Z,7.63
2022-10-22T20:48:55.337Z,9.50
2022-10-22T20:51:22.179Z,9.23
2022-10-22T20:53:48.711Z,8.67
2022-10-22T20:56:16.451Z,8.73
2022-10-22T20:58:48.613Z,8.25
2022-10-22T21:01:23.821Z,8.38
2022-10-22T21:03:51.631Z,8.73
2022-10-22T21:06:23.171Z,8.37
2022-10-22T21:08:51.001Z,9.65
2022-10-22T21:11:18.651Z,8.82
2022-10-22T21:13:45.262Z,9.27
2022-10-22T21:16:13.848Z,9.23
2022-10-22T21:18:40.716Z,7.67
2022-10-22T21:21:09.715Z,7.75
2022-10-22T21:23:36.667Z,7.72
2022-10-22T21:26:04.625Z,7.38
2022-10-22T21:28:35.608Z,7.97
2022-10-22T21:31:08.038Z,7.63
2022-10-22T21:33:39.250Z,7.35
2022-10-22T21:36:06.976Z,6.80
2022-10-22T21:38:34.707Z,7.10
2022-10-22T21:41:07.451Z,7.95
2022-10-22T21:43:40.833Z,7.50
2022-10-22T21:46:17.009Z,7.43
2022-10-22T21:48:44.275Z,6.90
2022-10-22T21:51:11.984Z,6.35
2022-10-22T21:53:39.373Z,7.55
2022-10-22T21:56:07.355Z,6.50
2022-10-22T21:58:35.586Z,6.38
2022-10-22T22:01:02.931Z,6.15
2022-10-22T22:03:29.467Z,6.20
2022-10-22T22:06:05.971Z,5.50
2022-10-22T22:08:34.066Z,6.07
2022-10-22T22:11:03.102Z,5.47
2022-10-22T22:13:29.979Z,5.75
2022-10-22T22:16:01.455Z,6.20
2022-10-22T22:18:28.269Z,6.30
2022-10-22T22:20:54.704Z,6.10
2022-10-22T22:23:21.373Z,5.47
2022-10-22T22:25:47.906Z,6.30
2022-10-22T22:28:14.535Z,6.20
2022-10-22T22:30:41.195Z,7.35
2022-10-22T22:33:07.747Z,6.33
2022-10-22T22:35:37.051Z,6.32
2022-10-22T22:38:03.987Z,7.43
2022-10-22T22:40:33.079Z,8.05
2022-10-22T22:43:00.523Z,7.53
2022-10-22T22:45:26.991Z,8.27
2022-10-22T22:54:25.179Z,7.57
2022-10-22T22:56:51.887Z,6.78
2022-10-22T22:59:18.353Z,7.67
2022-10-22T23:01:47.941Z,7.68
2022-10-22T23:04:19.175Z,7.85
2022-10-22T23:06:46.257Z,6.93
2022-10-22T23:09:15.499Z,7.20
2022-10-22T23:11:43.421Z,6.60
2022-10-22T23:14:13.779Z,7.25
2022-10-22T23:16:45.629Z,7.65
2022-10-22T23:19:14.771Z,6.28
2022-10-22T23:21:45.561Z,6.82
2022-10-22T23:24:14.957Z,7.33
2022-10-22T23:26:44.615Z,6.95
2022-10-22T23:29:17.427Z,7.40
2022-10-22T23:31:44.996Z,6.93
2022-10-22T23:34:14.158Z,6.80
2022-10-22T23:36:40.795Z,6.70
2022-10-22T23:39:14.640Z,6.85
2022-10-22T23:41:41.159Z,6.72
2022-10-22T23:44:09.034Z,6.82
2022-10-22T23:46:36.108Z,6.85
2022-10-22T23:49:02.712Z,6.30
2022-10-22T23:51:29.181Z,6.47
2022-10-22T23:53:59.888Z,6.30
2022-10-22T23:56:28.117Z,6.22
2022-10-22T23:58:55.900Z,7.13
